sensor_id;sensor_type;location;lat;lon;timestamp;pressure;altitude;pressure_sealevel;temperature;humidity
46778;BME280;32536;47.128;8.746;2022-07-29T00:00:58;91704.28;;;21.24;48.10
46778;BME280;32536;47.128;8.746;2022-07-29T00:03:25;91713.47;;;21.11;48.52
46778;BME280;32536;47.128;8.746;2022-07-29T00:05:52;91719.03;;;21.02;48.25
46778;BME280;32536;47.128;8.746;2022-07-29T00:08:19;91711.41;;;20.91;48.38
46778;BME280;32536;47.128;8.746;2022-07-29T00:10:46;91706.63;;;20.86;48.28
46778;BME280;32536;47.128;8.746;2022-07-29T00:13:13;91699.97;;;20.87;47.98
46778;BME280;32536;47.128;8.746;2022-07-29T00:15:40;91709.91;;;20.90;48.14
46778;BME280;32536;47.128;8.746;2022-07-29T00:18:07;91704.75;;;20.92;48.15
46778;BME280;32536;47.128;8.746;2022-07-29T00:20:34;91699.56;;;20.94;48.24
46778;BME280;32536;47.128;8.746;2022-07-29T00:23:00;91698.81;;;20.94;48.17
46778;BME280;32536;47.128;8.746;2022-07-29T00:25:28;91698.25;;;20.90;48.60
46778;BME280;32536;47.128;8.746;2022-07-29T00:27:55;91694.50;;;20.87;48.56
46778;BME280;32536;47.128;8.746;2022-07-29T00:30:22;91691.69;;;20.82;48.38
46778;BME280;32536;47.128;8.746;2022-07-29T00:32:49;91694.69;;;20.84;48.42
46778;BME280;32536;47.128;8.746;2022-07-29T00:38:01;91682.56;;;20.85;48.71
46778;BME280;32536;47.128;8.746;2022-07-29T00:40:27;91686.53;;;20.84;48.29
46778;BME280;32536;47.128;8.746;2022-07-29T00:42:54;91692.06;;;20.89;48.06
46778;BME280;32536;47.128;8.746;2022-07-29T00:45:21;91687.63;;;20.92;48.29
46778;BME280;32536;47.128;8.746;2022-07-29T00:47:48;91687.19;;;20.93;48.49
46778;BME280;32536;47.128;8.746;2022-07-29T00:50:16;91679.75;;;20.94;48.37
46778;BME280;32536;47.128;8.746;2022-07-29T00:52:43;91683.50;;;20.97;48.40
46778;BME280;32536;47.128;8.746;2022-07-29T00:55:14;91687.00;;;20.97;48.67
46778;BME280;32536;47.128;8.746;2022-07-29T00:57:42;91683.31;;;21.00;48.52
46778;BME280;32536;47.128;8.746;2022-07-29T01:00:13;91672.44;;;21.00;48.75
46778;BME280;32536;47.128;8.746;2022-07-29T01:02:43;91678.44;;;21.04;48.68
46778;BME280;32536;47.128;8.746;2022-07-29T01:05:13;91672.34;;;21.09;48.65
46778;BME280;32536;47.128;8.746;2022-07-29T01:07:42;91668.22;;;21.14;48.45
46778;BME280;32536;47.128;8.746;2022-07-29T01:10:10;91667.25;;;21.17;48.55
46778;BME280;32536;47.128;8.746;2022-07-29T01:12:39;91668.00;;;21.18;48.77
46778;BME280;32536;47.128;8.746;2022-07-29T01:15:07;91668.78;;;21.18;48.74
46778;BME280;32536;47.128;8.746;2022-07-29T01:17:44;91664.06;;;21.19;49.43
46778;BME280;32536;47.128;8.746;2022-07-29T01:20:35;91660.69;;;21.24;48.26
46778;BME280;32536;47.128;8.746;2022-07-29T01:29:36;91642.38;;;21.24;49.03
46778;BME280;32536;47.128;8.746;2022-07-29T01:32:12;91644.06;;;21.22;49.08
46778;BME280;32536;47.128;8.746;2022-07-29T01:40:31;91640.22;;;20.99;48.26
46778;BME280;32536;47.128;8.746;2022-07-29T01:43:09;91635.25;;;20.97;48.62
46778;BME280;32536;47.128;8.746;2022-07-29T01:45:41;91642.47;;;21.00;48.54
46778;BME280;32536;47.128;8.746;2022-07-29T01:48:14;91639.47;;;20.98;48.29
46778;BME280;32536;47.128;8.746;2022-07-29T01:51:07;91634.22;;;20.94;48.59
46778;BME280;32536;47.128;8.746;2022-07-29T01:57:11;91639.19;;;20.96;48.31
46778;BME280;32536;47.128;8.746;2022-07-29T01:59:41;91648.13;;;20.97;48.12
46778;BME280;32536;47.128;8.746;2022-07-29T02:02:11;91644.19;;;20.98;48.43
46778;BME280;32536;47.128;8.746;2022-07-29T02:04:42;91636.28;;;21.00;48.40
46778;BME280;32536;47.128;8.746;2022-07-29T02:07:13;91641.25;;;21.01;48.62
46778;BME280;32536;47.128;8.746;2022-07-29T02:09:45;91638.81;;;21.03;48.63
46778;BME280;32536;47.128;8.746;2022-07-29T02:12:14;91632.13;;;21.04;48.61
46778;BME280;32536;47.128;8.746;2022-07-29T02:14:47;91637.88;;;21.06;48.59
46778;BME280;32536;47.128;8.746;2022-07-29T02:17:25;91636.94;;;21.09;48.68
46778;BME280;32536;47.128;8.746;2022-07-29T02:20:06;91632.81;;;21.14;48.44
46778;BME280;32536;47.128;8.746;2022-07-29T02:22:37;91635.97;;;21.13;48.71
46778;BME280;32536;47.128;8.746;2022-07-29T02:25:06;91632.72;;;21.08;48.74
46778;BME280;32536;47.128;8.746;2022-07-29T02:27:35;91626.50;;;21.08;48.38
46778;BME280;32536;47.128;8.746;2022-07-29T02:30:05;91634.22;;;21.09;48.16
46778;BME280;32536;47.128;8.746;2022-07-29T02:32:35;91636.19;;;21.09;48.50
46778;BME280;32536;47.128;8.746;2022-07-29T02:35:05;91639.66;;;21.09;48.19
46778;BME280;32536;47.128;8.746;2022-07-29T02:37:35;91643.13;;;21.10;48.56
46778;BME280;32536;47.128;8.746;2022-07-29T02:40:03;91629.41;;;21.04;48.29
46778;BME280;32536;47.128;8.746;2022-07-29T02:42:32;91637.81;;;21.01;48.31
46778;BME280;32536;47.128;8.746;2022-07-29T02:45:00;91635.81;;;21.01;48.24
46778;BME280;32536;47.128;8.746;2022-07-29T02:47:40;91632.81;;;20.99;48.87
46778;BME280;32536;47.128;8.746;2022-07-29T02:50:15;91637.50;;;20.99;48.57
46778;BME280;32536;47.128;8.746;2022-07-29T02:52:57;91643.16;;;20.95;48.71
46778;BME280;32536;47.128;8.746;2022-07-29T02:55:48;91635.72;;;20.95;48.87
46778;BME280;32536;47.128;8.746;2022-07-29T02:58:29;91650.28;;;20.92;49.18
46778;BME280;32536;47.128;8.746;2022-07-29T03:01:02;91650.28;;;20.92;49.00
46778;BME280;32536;47.128;8.746;2022-07-29T03:03:35;91646.06;;;20.91;49.21
46778;BME280;32536;47.128;8.746;2022-07-29T03:06:04;91645.88;;;20.95;48.78
46778;BME280;32536;47.128;8.746;2022-07-29T03:08:32;91645.38;;;20.97;48.54
46778;BME280;32536;47.128;8.746;2022-07-29T03:11:00;91640.97;;;20.99;48.56
46778;BME280;32536;47.128;8.746;2022-07-29T03:13:29;91645.97;;;21.01;48.70
46778;BME280;32536;47.128;8.746;2022-07-29T03:15:57;91635.06;;;21.01;48.37
46778;BME280;32536;47.128;8.746;2022-07-29T03:18:24;91645.97;;;21.01;48.25
46778;BME280;32536;47.128;8.746;2022-07-29T03:20:51;91644.66;;;20.96;48.37
46778;BME280;32536;47.128;8.746;2022-07-29T03:23:20;91643.53;;;20.88;48.36
46778;BME280;32536;47.128;8.746;2022-07-29T03:25:49;91647.94;;;20.85;48.31
46778;BME280;32536;47.128;8.746;2022-07-29T03:28:16;91644.63;;;20.81;48.25
46778;BME280;32536;47.128;8.746;2022-07-29T03:30:43;91649.81;;;20.79;48.41
46778;BME280;32536;47.128;8.746;2022-07-29T03:33:10;91652.72;;;20.75;48.30
46778;BME280;32536;47.128;8.746;2022-07-29T03:35:37;91658.34;;;20.72;48.24
46778;BME280;32536;47.128;8.746;2022-07-29T03:38:04;91663.66;;;20.66;48.55
46778;BME280;32536;47.128;8.746;2022-07-29T03:40:40;91666.84;;;20.64;48.77
46778;BME280;32536;47.128;8.746;2022-07-29T03:43:35;91669.09;;;20.66;48.74
46778;BME280;32536;47.128;8.746;2022-07-29T03:46:07;91673.63;;;20.69;48.62
46778;BME280;32536;47.128;8.746;2022-07-29T03:48:39;91674.50;;;20.75;48.75
46778;BME280;32536;47.128;8.746;2022-07-29T03:51:10;91677.31;;;20.81;48.39
46778;BME280;32536;47.128;8.746;2022-07-29T03:53:37;91678.53;;;20.80;48.42
46778;BME280;32536;47.128;8.746;2022-07-29T03:56:05;91680.69;;;20.76;48.75
46778;BME280;32536;47.128;8.746;2022-07-29T03:58:34;91683.16;;;20.74;48.81
46778;BME280;32536;47.128;8.746;2022-07-29T04:01:01;91677.97;;;20.76;48.78
46778;BME280;32536;47.128;8.746;2022-07-29T04:03:28;91684.00;;;20.80;48.97
46778;BME280;32536;47.128;8.746;2022-07-29T04:06:03;91674.13;;;20.83;49.39
46778;BME280;32536;47.128;8.746;2022-07-29T04:08:33;91680.41;;;20.89;49.11
46778;BME280;32536;47.128;8.746;2022-07-29T04:11:01;91680.69;;;20.91;48.71
46778;BME280;32536;47.128;8.746;2022-07-29T04:13:28;91681.94;;;20.90;49.14
46778;BME280;32536;47.128;8.746;2022-07-29T04:15:55;91688.13;;;20.90;49.15
46778;BME280;32536;47.128;8.746;2022-07-29T04:18:22;91690.34;;;20.92;48.91
46778;BME280;32536;47.128;8.746;2022-07-29T04:20:49;91696.38;;;20.96;48.90
46778;BME280;32536;47.128;8.746;2022-07-29T04:23:16;91689.53;;;21.01;48.68
46778;BME280;32536;47.128;8.746;2022-07-29T04:25:43;91688.88;;;21.06;48.76
46778;BME280;32536;47.128;8.746;2022-07-29T04:28:10;91690.09;;;21.05;48.84
46778;BME280;32536;47.128;8.746;2022-07-29T04:30:37;91694.50;;;21.02;49.03
46778;BME280;32536;47.128;8.746;2022-07-29T04:33:06;91685.56;;;21.02;48.74
46778;BME280;32536;47.128;8.746;2022-07-29T04:35:35;91685.56;;;21.02;48.89
46778;BME280;32536;47.128;8.746;2022-07-29T04:38:04;91682.84;;;21.02;49.12
46778;BME280;32536;47.128;8.746;2022-07-29T04:40:31;91683.88;;;21.04;48.98
46778;BME280;32536;47.128;8.746;2022-07-29T04:43:00;91688.69;;;21.09;49.07
46778;BME280;32536;47.128;8.746;2022-07-29T04:45:28;91693.75;;;21.17;48.96
46778;BME280;32536;47.128;8.746;2022-07-29T04:47:55;91689.16;;;21.23;48.77
46778;BME280;32536;47.128;8.746;2022-07-29T04:50:22;91689.69;;;21.27;48.76
46778;BME280;32536;47.128;8.746;2022-07-29T04:52:49;91686.06;;;21.30;48.72
46778;BME280;32536;47.128;8.746;2022-07-29T04:55:16;91683.50;;;21.26;48.74
46778;BME280;32536;47.128;8.746;2022-07-29T04:57:43;91684.63;;;21.20;48.98
46778;BME280;32536;47.128;8.746;2022-07-29T05:00:10;91676.94;;;21.18;48.70
46778;BME280;32536;47.128;8.746;2022-07-29T05:02:38;91674.03;;;21.22;48.83
46778;BME280;32536;47.128;8.746;2022-07-29T05:05:05;91668.56;;;21.22;48.66
46778;BME280;32536;47.128;8.746;2022-07-29T05:07:32;91665.09;;;21.21;48.76
46778;BME280;32536;47.128;8.746;2022-07-29T05:09:59;91658.91;;;21.21;48.72
46778;BME280;32536;47.128;8.746;2022-07-29T05:12:26;91663.88;;;21.22;48.69
46778;BME280;32536;47.128;8.746;2022-07-29T05:14:53;91650.00;;;21.20;48.76
46778;BME280;32536;47.128;8.746;2022-07-29T05:17:20;91651.22;;;21.19;48.79
46778;BME280;32536;47.128;8.746;2022-07-29T05:19:47;91648.19;;;21.17;48.73
46778;BME280;32536;47.128;8.746;2022-07-29T05:22:16;91655.44;;;21.20;48.72
46778;BME280;32536;47.128;8.746;2022-07-29T05:24:44;91653.75;;;21.23;48.99
46778;BME280;32536;47.128;8.746;2022-07-29T05:27:11;91656.91;;;21.21;49.05
46778;BME280;32536;47.128;8.746;2022-07-29T05:29:38;91650.91;;;21.17;49.10
46778;BME280;32536;47.128;8.746;2022-07-29T05:32:05;91663.50;;;21.15;49.06
46778;BME280;32536;47.128;8.746;2022-07-29T05:34:32;91654.97;;;21.22;48.79
46778;BME280;32536;47.128;8.746;2022-07-29T05:36:59;91649.13;;;21.29;48.98
46778;BME280;32536;47.128;8.746;2022-07-29T05:39:26;91654.44;;;21.38;48.94
46778;BME280;32536;47.128;8.746;2022-07-29T05:41:53;91657.56;;;21.46;48.88
46778;BME280;32536;47.128;8.746;2022-07-29T05:44:20;91645.88;;;21.46;48.90
46778;BME280;32536;47.128;8.746;2022-07-29T05:46:46;91649.63;;;21.48;48.68
46778;BME280;32536;47.128;8.746;2022-07-29T05:49:13;91640.53;;;21.51;48.88
46778;BME280;32536;47.128;8.746;2022-07-29T05:51:40;91647.56;;;21.58;48.72
46778;BME280;32536;47.128;8.746;2022-07-29T05:54:07;91654.06;;;21.61;48.85
46778;BME280;32536;47.128;8.746;2022-07-29T05:56:36;91642.19;;;21.64;48.99
46778;BME280;32536;47.128;8.746;2022-07-29T05:59:03;91645.47;;;21.68;48.66
46778;BME280;32536;47.128;8.746;2022-07-29T06:01:29;91644.81;;;21.73;48.60
46778;BME280;32536;47.128;8.746;2022-07-29T06:03:57;91646.56;;;21.76;48.54
46778;BME280;32536;47.128;8.746;2022-07-29T06:06:23;91642.63;;;21.77;48.88
46778;BME280;32536;47.128;8.746;2022-07-29T06:08:50;91642.16;;;21.79;48.72
46778;BME280;32536;47.128;8.746;2022-07-29T06:11:17;91641.50;;;21.84;48.77
46778;BME280;32536;47.128;8.746;2022-07-29T06:13:44;91644.03;;;21.87;48.69
46778;BME280;32536;47.128;8.746;2022-07-29T06:16:11;91643.75;;;21.85;48.72
46778;BME280;32536;47.128;8.746;2022-07-29T06:18:38;91653.22;;;21.90;48.72
46778;BME280;32536;47.128;8.746;2022-07-29T06:21:08;91653.41;;;21.86;48.88
46778;BME280;32536;47.128;8.746;2022-07-29T06:23:37;91649.66;;;21.84;48.93
46778;BME280;32536;47.128;8.746;2022-07-29T06:26:05;91659.91;;;21.89;48.64
46778;BME280;32536;47.128;8.746;2022-07-29T06:28:32;91666.91;;;21.96;48.79
46778;BME280;32536;47.128;8.746;2022-07-29T06:30:59;91668.50;;;22.02;48.90
46778;BME280;32536;47.128;8.746;2022-07-29T06:33:26;91670.81;;;22.10;48.67
46778;BME280;32536;47.128;8.746;2022-07-29T06:35:53;91677.09;;;22.16;48.82
46778;BME280;32536;47.128;8.746;2022-07-29T06:38:20;91687.13;;;22.25;48.78
46778;BME280;32536;47.128;8.746;2022-07-29T06:40:47;91689.66;;;22.28;48.64
46778;BME280;32536;47.128;8.746;2022-07-29T06:43:36;91695.84;;;22.29;48.88
46778;BME280;32536;47.128;8.746;2022-07-29T06:46:13;91701.28;;;22.29;48.72
46778;BME280;32536;47.128;8.746;2022-07-29T06:48:41;91709.75;;;22.31;48.66
46778;BME280;32536;47.128;8.746;2022-07-29T06:51:10;91713.31;;;22.37;48.57
46778;BME280;32536;47.128;8.746;2022-07-29T06:53:38;91724.53;;;22.39;48.56
46778;BME280;32536;47.128;8.746;2022-07-29T06:56:06;91736.75;;;22.44;48.74
46778;BME280;32536;47.128;8.746;2022-07-29T06:58:38;91745.00;;;22.49;48.56
46778;BME280;32536;47.128;8.746;2022-07-29T07:01:06;91744.53;;;22.51;48.75
46778;BME280;32536;47.128;8.746;2022-07-29T07:03:33;91740.09;;;22.53;48.83
46778;BME280;32536;47.128;8.746;2022-07-29T07:06:00;91743.09;;;22.55;48.85
46778;BME280;32536;47.128;8.746;2022-07-29T07:08:27;91745.06;;;22.55;48.87
46778;BME280;32536;47.128;8.746;2022-07-29T07:10:54;91747.06;;;22.54;48.67
46778;BME280;32536;47.128;8.746;2022-07-29T07:13:22;91745.06;;;22.55;48.72
46778;BME280;32536;47.128;8.746;2022-07-29T07:15:50;91752.53;;;22.54;48.66
46778;BME280;32536;47.128;8.746;2022-07-29T07:18:18;91761.72;;;22.57;48.62
46778;BME280;32536;47.128;8.746;2022-07-29T07:20:45;91777.41;;;22.62;48.63
46778;BME280;32536;47.128;8.746;2022-07-29T07:23:12;91770.53;;;22.67;48.56
46778;BME280;32536;47.128;8.746;2022-07-29T07:25:38;91781.50;;;22.73;48.58
46778;BME280;32536;47.128;8.746;2022-07-29T07:28:05;91769.63;;;22.76;48.37
46778;BME280;32536;47.128;8.746;2022-07-29T07:30:32;91765.94;;;22.79;48.29
46778;BME280;32536;47.128;8.746;2022-07-29T07:32:59;91766.00;;;22.84;48.45
46778;BME280;32536;47.128;8.746;2022-07-29T07:35:26;91754.59;;;22.86;48.16
46778;BME280;32536;47.128;8.746;2022-07-29T07:37:55;91752.41;;;22.90;48.28
46778;BME280;32536;47.128;8.746;2022-07-29T07:40:22;91755.34;;;22.86;48.25
46778;BME280;32536;47.128;8.746;2022-07-29T07:42:49;91747.59;;;22.79;48.37
46778;BME280;32536;47.128;8.746;2022-07-29T07:45:17;91750.44;;;22.70;48.51
46778;BME280;32536;47.128;8.746;2022-07-29T07:47:44;91743.22;;;22.67;48.65
46778;BME280;32536;47.128;8.746;2022-07-29T07:50:13;91744.50;;;22.71;48.86
46778;BME280;32536;47.128;8.746;2022-07-29T07:52:53;91752.44;;;22.69;48.99
46778;BME280;32536;47.128;8.746;2022-07-29T07:55:24;91758.38;;;22.68;48.99
46778;BME280;32536;47.128;8.746;2022-07-29T07:57:51;91749.50;;;22.73;49.01
46778;BME280;32536;47.128;8.746;2022-07-29T08:00:18;91747.78;;;22.76;48.86
46778;BME280;32536;47.128;8.746;2022-07-29T08:02:45;91747.09;;;22.81;48.95
46778;BME280;32536;47.128;8.746;2022-07-29T08:05:12;91750.84;;;22.83;48.94
46778;BME280;32536;47.128;8.746;2022-07-29T08:07:45;91750.72;;;22.93;48.77
46778;BME280;32536;47.128;8.746;2022-07-29T08:10:13;91747.06;;;23.01;48.76
46778;BME280;32536;47.128;8.746;2022-07-29T08:13:11;91746.91;;;23.11;48.57
46778;BME280;32536;47.128;8.746;2022-07-29T08:15:39;91753.47;;;23.19;48.59
46778;BME280;32536;47.128;8.746;2022-07-29T08:18:11;91759.94;;;23.22;48.56
46778;BME280;32536;47.128;8.746;2022-07-29T08:20:39;91761.19;;;23.21;48.49
46778;BME280;32536;47.128;8.746;2022-07-29T08:23:07;91765.97;;;23.26;48.52
46778;BME280;32536;47.128;8.746;2022-07-29T08:25:37;91768.00;;;23.31;48.35
46778;BME280;32536;47.128;8.746;2022-07-29T08:28:04;91769.56;;;23.38;48.43
46778;BME280;32536;47.128;8.746;2022-07-29T08:30:31;91761.41;;;23.43;48.21
46778;BME280;32536;47.128;8.746;2022-07-29T08:32:59;91777.09;;;23.48;47.96
46778;BME280;32536;47.128;8.746;2022-07-29T08:35:27;91771.16;;;23.50;48.07
46778;BME280;32536;47.128;8.746;2022-07-29T08:37:54;91777.59;;;23.47;48.25
46778;BME280;32536;47.128;8.746;2022-07-29T08:40:23;91784.97;;;23.41;48.31
46778;BME280;32536;47.128;8.746;2022-07-29T08:42:50;91781.94;;;23.33;48.36
46778;BME280;32536;47.128;8.746;2022-07-29T08:45:17;91784.31;;;23.25;48.69
46778;BME280;32536;47.128;8.746;2022-07-29T08:47:45;91784.00;;;23.17;48.96
46778;BME280;32536;47.128;8.746;2022-07-29T08:50:12;91785.16;;;23.11;48.79
46778;BME280;32536;47.128;8.746;2022-07-29T08:52:41;91786.13;;;23.08;48.92
46778;BME280;32536;47.128;8.746;2022-07-29T08:55:09;91786.59;;;23.06;49.11
46778;BME280;32536;47.128;8.746;2022-07-29T08:57:38;91780.66;;;23.08;49.10
46778;BME280;32536;47.128;8.746;2022-07-29T09:00:07;91770.25;;;23.12;49.06
46778;BME280;32536;47.128;8.746;2022-07-29T09:02:40;91772.78;;;23.15;49.13
46778;BME280;32536;47.128;8.746;2022-07-29T09:05:09;91782.28;;;23.20;49.00
46778;BME280;32536;47.128;8.746;2022-07-29T09:07:36;91778.63;;;23.23;48.92
46778;BME280;32536;47.128;8.746;2022-07-29T09:10:04;91781.88;;;23.27;49.25
46778;BME280;32536;47.128;8.746;2022-07-29T09:12:31;91783.16;;;23.32;49.13
46778;BME280;32536;47.128;8.746;2022-07-29T09:14:58;91780.72;;;23.34;48.92
46778;BME280;32536;47.128;8.746;2022-07-29T09:17:47;91774.44;;;23.28;50.09
46778;BME280;32536;47.128;8.746;2022-07-29T09:20:17;91777.41;;;23.30;49.36
46778;BME280;32536;47.128;8.746;2022-07-29T09:22:45;91779.69;;;23.31;49.19
46778;BME280;32536;47.128;8.746;2022-07-29T09:25:35;91781.66;;;23.31;49.43
46778;BME280;32536;47.128;8.746;2022-07-29T09:28:15;91774.22;;;23.31;49.77
46778;BME280;32536;47.128;8.746;2022-07-29T09:30:53;91776.19;;;23.31;49.85
46778;BME280;32536;47.128;8.746;2022-07-29T09:33:24;91771.25;;;23.35;48.89
46778;BME280;32536;47.128;8.746;2022-07-29T09:36:06;91771.31;;;23.41;49.15
46778;BME280;32536;47.128;8.746;2022-07-29T09:38:35;91762.97;;;23.50;48.94
46778;BME280;32536;47.128;8.746;2022-07-29T09:41:04;91769.00;;;23.60;48.71
46778;BME280;32536;47.128;8.746;2022-07-29T09:43:33;91766.84;;;23.70;48.80
46778;BME280;32536;47.128;8.746;2022-07-29T09:46:13;91765.63;;;23.76;48.70
46778;BME280;32536;47.128;8.746;2022-07-29T09:48:40;91764.47;;;23.83;48.70
46778;BME280;32536;47.128;8.746;2022-07-29T09:51:17;91765.25;;;23.89;48.24
46778;BME280;32536;47.128;8.746;2022-07-29T09:53:45;91753.81;;;23.91;48.44
46778;BME280;32536;47.128;8.746;2022-07-29T09:56:11;91752.88;;;23.94;48.22
46778;BME280;32536;47.128;8.746;2022-07-29T09:58:39;91749.41;;;23.99;48.14
46778;BME280;32536;47.128;8.746;2022-07-29T10:01:06;91746.97;;;24.07;48.19
46778;BME280;32536;47.128;8.746;2022-07-29T10:03:50;91740.31;;;24.13;47.21
46778;BME280;32536;47.128;8.746;2022-07-29T10:06:18;91743.09;;;24.25;47.77
46778;BME280;32536;47.128;8.746;2022-07-29T10:08:44;91736.44;;;24.32;47.83
46778;BME280;32536;47.128;8.746;2022-07-29T10:11:21;91734.47;;;24.38;46.91
46778;BME280;32536;47.128;8.746;2022-07-29T10:13:48;91743.22;;;24.48;47.54
46778;BME280;32536;47.128;8.746;2022-07-29T10:16:16;91735.78;;;24.54;47.67
46778;BME280;32536;47.128;8.746;2022-07-29T10:18:44;91745.50;;;24.60;47.65
46778;BME280;32536;47.128;8.746;2022-07-29T10:21:12;91736.84;;;24.68;47.47
46778;BME280;32536;47.128;8.746;2022-07-29T10:23:39;91733.88;;;24.71;47.45
46778;BME280;32536;47.128;8.746;2022-07-29T10:26:07;91735.13;;;24.76;47.19
46778;BME280;32536;47.128;8.746;2022-07-29T10:28:34;91729.44;;;24.80;47.13
46778;BME280;32536;47.128;8.746;2022-07-29T10:31:36;91734.13;;;24.79;46.47
46778;BME280;32536;47.128;8.746;2022-07-29T10:34:13;91727.69;;;24.82;46.39
46778;BME280;32536;47.128;8.746;2022-07-29T10:40:10;91727.19;;;24.78;45.93
46778;BME280;32536;47.128;8.746;2022-07-29T10:43:24;91721.47;;;24.82;46.52
46778;BME280;32536;47.128;8.746;2022-07-29T10:45:57;91721.72;;;24.89;47.17
46778;BME280;32536;47.128;8.746;2022-07-29T10:48:25;91715.50;;;24.94;46.66
46778;BME280;32536;47.128;8.746;2022-07-29T10:51:01;91715.78;;;24.97;45.83
46778;BME280;32536;47.128;8.746;2022-07-29T10:53:51;91709.81;;;25.04;45.49
46778;BME280;32536;47.128;8.746;2022-07-29T10:56:29;91714.56;;;25.09;46.23
46778;BME280;32536;47.128;8.746;2022-07-29T11:01:49;91707.09;;;25.15;46.88
46778;BME280;32536;47.128;8.746;2022-07-29T11:07:10;91716.03;;;25.04;46.91
46778;BME280;32536;47.128;8.746;2022-07-29T11:09:38;91717.78;;;25.02;47.04
46778;BME280;32536;47.128;8.746;2022-07-29T11:15:05;91726.50;;;25.12;46.92
46778;BME280;32536;47.128;8.746;2022-07-29T11:20:47;91727.28;;;25.23;46.24
46778;BME280;32536;47.128;8.746;2022-07-29T11:29:01;91727.03;;;25.27;46.39
46778;BME280;32536;47.128;8.746;2022-07-29T11:31:40;91724.53;;;25.29;46.34
46778;BME280;32536;47.128;8.746;2022-07-29T11:34:28;91724.53;;;25.29;46.54
46778;BME280;32536;47.128;8.746;2022-07-29T11:39:40;91717.78;;;25.07;46.91
46778;BME280;32536;47.128;8.746;2022-07-29T11:45:00;91717.22;;;24.81;46.74
46778;BME280;32536;47.128;8.746;2022-07-29T11:47:38;91721.19;;;24.74;46.70
46778;BME280;32536;47.128;8.746;2022-07-29T11:50:12;91716.19;;;24.67;47.00
46778;BME280;32536;47.128;8.746;2022-07-29T11:52:44;91715.84;;;24.53;47.05
46778;BME280;32536;47.128;8.746;2022-07-29T11:55:15;91729.22;;;24.34;47.28
46778;BME280;32536;47.128;8.746;2022-07-29T11:57:53;91731.69;;;24.32;47.05
46778;BME280;32536;47.128;8.746;2022-07-29T12:00:30;91729.22;;;24.34;47.47
46778;BME280;32536;47.128;8.746;2022-07-29T12:03:08;91736.44;;;24.37;47.40
46778;BME280;32536;47.128;8.746;2022-07-29T12:05:42;91736.72;;;24.39;47.54
46778;BME280;32536;47.128;8.746;2022-07-29T12:08:13;91738.94;;;24.41;47.15
46778;BME280;32536;47.128;8.746;2022-07-29T12:10:46;91743.19;;;24.42;47.31
46778;BME280;32536;47.128;8.746;2022-07-29T12:13:15;91743.91;;;24.37;47.40
46778;BME280;32536;47.128;8.746;2022-07-29T12:15:57;91748.63;;;24.30;47.43
46778;BME280;32536;47.128;8.746;2022-07-29T12:18:26;91746.88;;;24.33;47.26
46778;BME280;32536;47.128;8.746;2022-07-29T12:21:00;91753.38;;;24.36;47.67
46778;BME280;32536;47.128;8.746;2022-07-29T12:23:31;91757.38;;;24.40;47.48
46778;BME280;32536;47.128;8.746;2022-07-29T12:25:58;91769.00;;;24.29;47.78
46778;BME280;32536;47.128;8.746;2022-07-29T12:28:25;91771.16;;;24.14;47.60
46778;BME280;32536;47.128;8.746;2022-07-29T12:30:53;91771.09;;;24.03;47.31
46778;BME280;32536;47.128;8.746;2022-07-29T12:33:27;91784.13;;;23.87;46.08
46778;BME280;32536;47.128;8.746;2022-07-29T12:36:00;91786.06;;;23.81;45.75
46778;BME280;32536;47.128;8.746;2022-07-29T12:38:28;91796.28;;;23.80;46.71
46778;BME280;32536;47.128;8.746;2022-07-29T12:40:55;91790.47;;;23.73;46.80
46778;BME280;32536;47.128;8.746;2022-07-29T12:43:24;91790.91;;;23.65;46.61
46778;BME280;32536;47.128;8.746;2022-07-29T12:45:53;91799.09;;;23.65;46.35
46778;BME280;32536;47.128;8.746;2022-07-29T12:48:42;91799.81;;;23.60;45.83
46778;BME280;32536;47.128;8.746;2022-07-29T12:51:11;91804.78;;;23.62;46.74
46778;BME280;32536;47.128;8.746;2022-07-29T12:53:39;91812.00;;;23.59;46.80
46778;BME280;32536;47.128;8.746;2022-07-29T12:56:15;91809.00;;;23.57;47.27
46778;BME280;32536;47.128;8.746;2022-07-29T12:58:42;91806.78;;;23.61;47.03
46778;BME280;32536;47.128;8.746;2022-07-29T13:03:56;91819.72;;;23.61;48.02
46778;BME280;32536;47.128;8.746;2022-07-29T13:09:10;91819.97;;;23.63;47.35
46778;BME280;32536;47.128;8.746;2022-07-29T13:11:43;91820.91;;;23.54;48.06
46778;BME280;32536;47.128;8.746;2022-07-29T13:14:33;91828.28;;;23.48;48.34
46778;BME280;32536;47.128;8.746;2022-07-29T13:17:21;91833.44;;;23.40;48.17
46778;BME280;32536;47.128;8.746;2022-07-29T13:19:52;91839.13;;;23.37;47.67
46778;BME280;32536;47.128;8.746;2022-07-29T13:22:30;91840.84;;;23.34;47.75
46778;BME280;32536;47.128;8.746;2022-07-29T13:24:59;91850.53;;;23.35;48.10
46778;BME280;32536;47.128;8.746;2022-07-29T13:27:29;91850.75;;;23.31;48.16
46778;BME280;32536;47.128;8.746;2022-07-29T13:29:59;91849.91;;;23.25;48.23
46778;BME280;32536;47.128;8.746;2022-07-29T13:32:28;91852.66;;;23.25;48.25
46778;BME280;32536;47.128;8.746;2022-07-29T13:34:58;91850.75;;;23.31;48.11
46778;BME280;32536;47.128;8.746;2022-07-29T13:37:28;91854.44;;;23.28;48.38
46778;BME280;32536;47.128;8.746;2022-07-29T13:39:56;91850.63;;;23.20;48.45
46778;BME280;32536;47.128;8.746;2022-07-29T13:42:23;91851.97;;;23.10;48.86
46778;BME280;32536;47.128;8.746;2022-07-29T13:44:50;91846.91;;;23.02;48.85
46778;BME280;32536;47.128;8.746;2022-07-29T13:47:21;91853.47;;;22.90;51.86
46778;BME280;32536;47.128;8.746;2022-07-29T13:49:48;91849.97;;;22.90;48.92
46778;BME280;32536;47.128;8.746;2022-07-29T13:52:15;91852.66;;;22.84;49.64
46778;BME280;32536;47.128;8.746;2022-07-29T13:54:43;91850.59;;;22.79;49.70
46778;BME280;32536;47.128;8.746;2022-07-29T13:57:11;91849.56;;;22.76;49.75
46778;BME280;32536;47.128;8.746;2022-07-29T13:59:39;91850.53;;;22.73;49.60
46778;BME280;32536;47.128;8.746;2022-07-29T14:02:08;91848.75;;;22.70;49.83
46778;BME280;32536;47.128;8.746;2022-07-29T14:04:36;91848.00;;;22.69;49.49
46778;BME280;32536;47.128;8.746;2022-07-29T14:07:03;91851.00;;;22.71;49.24